sensor_id;sensor_type;location;lat;lon;timestamp;P1;durP1;ratioP1;P2;durP2;ratioP2
18090;SDS011;9172;49.948;9.208;2022-08-20T00:03:27;7.10;;;5.20;;
18090;SDS011;9172;49.948;9.208;2022-08-20T00:05:58;7.70;;;4.93;;
18090;SDS011;9172;49.948;9.208;2022-08-20T00:08:28;8.40;;;5.20;;
18090;SDS011;9172;49.948;9.208;2022-08-20T00:10:58;6.73;;;5.13;;
18090;SDS011;9172;49.948;9.208;2022-08-20T00:13:29;6.50;;;4.87;;
18090;SDS011;9172;49.948;9.208;2022-08-20T00:16:00;8.63;;;5.27;;
18090;SDS011;9172;49.948;9.208;2022-08-20T00:18:31;11.03;;;4.77;;
18090;SDS011;9172;49.948;9.208;2022-08-20T00:21:03;8.07;;;5.13;;
18090;SDS011;9172;49.948;9.208;2022-08-20T00:23:35;6.87;;;5.00;;
18090;SDS011;9172;49.948;9.208;2022-08-20T00:26:05;6.17;;;4.63;;
18090;SDS011;9172;49.948;9.208;2022-08-20T00:28:35;6.87;;;4.80;;
18090;SDS011;9172;49.948;9.208;2022-08-20T00:31:06;6.27;;;4.80;;
18090;SDS011;9172;49.948;9.208;2022-08-20T00:33:37;6.93;;;5.40;;
18090;SDS011;9172;49.948;9.208;2022-08-20T00:36:07;6.73;;;5.33;;
18090;SDS011;9172;49.948;9.208;2022-08-20T00:38:38;6.30;;;4.87;;
18090;SDS011;9172;49.948;9.208;2022-08-20T00:41:16;7.27;;;5.30;;
18090;SDS011;9172;49.948;9.208;2022-08-20T00:43:48;6.80;;;5.27;;
18090;SDS011;9172;49.948;9.208;2022-08-20T00:46:19;7.90;;;5.13;;
18090;SDS011;9172;49.948;9.208;2022-08-20T00:48:50;9.23;;;5.10;;
18090;SDS011;9172;49.948;9.208;2022-08-20T00:51:23;6.47;;;5.00;;
18090;SDS011;9172;49.948;9.208;2022-08-20T00:53:54;7.07;;;5.57;;
18090;SDS011;9172;49.948;9.208;2022-08-20T00:56:26;6.40;;;4.90;;
18090;SDS011;9172;49.948;9.208;2022-08-20T00:58:58;7.43;;;5.07;;
18090;SDS011;9172;49.948;9.208;2022-08-20T01:01:28;7.77;;;5.33;;
18090;SDS011;9172;49.948;9.208;2022-08-20T01:03:59;11.27;;;5.80;;
18090;SDS011;9172;49.948;9.208;2022-08-20T01:06:28;7.47;;;4.90;;
18090;SDS011;9172;49.948;9.208;2022-08-20T01:08:56;6.83;;;4.77;;
18090;SDS011;9172;49.948;9.208;2022-08-20T01:11:27;7.67;;;4.90;;
18090;SDS011;9172;49.948;9.208;2022-08-20T01:13:59;7.30;;;4.87;;
18090;SDS011;9172;49.948;9.208;2022-08-20T01:16:31;7.30;;;5.63;;
18090;SDS011;9172;49.948;9.208;2022-08-20T01:19:01;6.83;;;5.30;;
18090;SDS011;9172;49.948;9.208;2022-08-20T01:21:30;6.70;;;4.93;;
18090;SDS011;9172;49.948;9.208;2022-08-20T01:24:01;6.77;;;4.87;;
18090;SDS011;9172;49.948;9.208;2022-08-20T01:26:35;6.93;;;4.57;;
18090;SDS011;9172;49.948;9.208;2022-08-20T01:29:07;7.40;;;5.40;;
18090;SDS011;9172;49.948;9.208;2022-08-20T01:31:38;7.57;;;5.30;;
18090;SDS011;9172;49.948;9.208;2022-08-20T01:34:09;8.33;;;5.40;;
18090;SDS011;9172;49.948;9.208;2022-08-20T01:36:40;8.50;;;5.27;;
18090;SDS011;9172;49.948;9.208;2022-08-20T01:39:11;8.53;;;5.50;;
18090;SDS011;9172;49.948;9.208;2022-08-20T01:41:54;9.47;;;5.30;;
18090;SDS011;9172;49.948;9.208;2022-08-20T01:44:33;7.07;;;5.07;;
18090;SDS011;9172;49.948;9.208;2022-08-20T01:47:09;8.00;;;4.90;;
18090;SDS011;9172;49.948;9.208;2022-08-20T01:49:40;5.70;;;4.70;;
18090;SDS011;9172;49.948;9.208;2022-08-20T01:52:11;6.40;;;4.93;;
18090;SDS011;9172;49.948;9.208;2022-08-20T01:54:44;8.80;;;5.83;;
18090;SDS011;9172;49.948;9.208;2022-08-20T01:57:14;7.77;;;5.37;;
18090;SDS011;9172;49.948;9.208;2022-08-20T01:59:45;7.03;;;5.43;;
18090;SDS011;9172;49.948;9.208;2022-08-20T02:02:17;6.70;;;5.20;;
18090;SDS011;9172;49.948;9.208;2022-08-20T02:04:46;7.47;;;5.83;;
18090;SDS011;9172;49.948;9.208;2022-08-20T02:07:17;8.60;;;5.53;;
18090;SDS011;9172;49.948;9.208;2022-08-20T02:09:48;12.93;;;5.60;;
18090;SDS011;9172;49.948;9.208;2022-08-20T02:12:18;8.77;;;5.43;;
18090;SDS011;9172;49.948;9.208;2022-08-20T02:14:48;9.67;;;5.07;;
18090;SDS011;9172;49.948;9.208;2022-08-20T02:17:21;9.23;;;5.83;;
18090;SDS011;9172;49.948;9.208;2022-08-20T02:19:52;7.13;;;5.30;;
18090;SDS011;9172;49.948;9.208;2022-08-20T02:22:24;7.43;;;5.10;;
18090;SDS011;9172;49.948;9.208;2022-08-20T02:24:54;6.47;;;4.53;;
18090;SDS011;9172;49.948;9.208;2022-08-20T02:27:24;7.10;;;4.50;;
18090;SDS011;9172;49.948;9.208;2022-08-20T02:29:53;9.17;;;5.17;;
18090;SDS011;9172;49.948;9.208;2022-08-20T02:32:21;10.43;;;4.97;;
18090;SDS011;9172;49.948;9.208;2022-08-20T02:34:50;7.70;;;4.73;;
18090;SDS011;9172;49.948;9.208;2022-08-20T02:37:19;6.40;;;4.80;;
18090;SDS011;9172;49.948;9.208;2022-08-20T02:39:47;6.83;;;4.80;;
18090;SDS011;9172;49.948;9.208;2022-08-20T02:42:16;7.13;;;4.90;;
18090;SDS011;9172;49.948;9.208;2022-08-20T02:44:45;6.80;;;5.17;;
18090;SDS011;9172;49.948;9.208;2022-08-20T02:47:13;5.73;;;4.47;;
18090;SDS011;9172;49.948;9.208;2022-08-20T02:49:42;5.73;;;4.53;;
18090;SDS011;9172;49.948;9.208;2022-08-20T02:52:11;6.33;;;4.70;;
18090;SDS011;9172;49.948;9.208;2022-08-20T02:54:40;8.80;;;4.80;;
18090;SDS011;9172;49.948;9.208;2022-08-20T02:57:11;5.90;;;4.50;;
18090;SDS011;9172;49.948;9.208;2022-08-20T02:59:40;8.23;;;4.43;;
18090;SDS011;9172;49.948;9.208;2022-08-20T03:02:10;7.17;;;4.37;;
18090;SDS011;9172;49.948;9.208;2022-08-20T03:04:39;7.13;;;4.27;;
18090;SDS011;9172;49.948;9.208;2022-08-20T03:07:08;7.23;;;5.50;;
18090;SDS011;9172;49.948;9.208;2022-08-20T03:09:40;6.40;;;4.70;;
18090;SDS011;9172;49.948;9.208;2022-08-20T03:12:09;6.13;;;4.67;;
18090;SDS011;9172;49.948;9.208;2022-08-20T03:14:38;5.77;;;4.47;;
18090;SDS011;9172;49.948;9.208;2022-08-20T03:17:07;6.77;;;4.43;;
18090;SDS011;9172;49.948;9.208;2022-08-20T03:19:35;7.87;;;4.73;;
18090;SDS011;9172;49.948;9.208;2022-08-20T03:22:05;6.53;;;4.30;;
18090;SDS011;9172;49.948;9.208;2022-08-20T03:24:33;7.23;;;4.53;;
18090;SDS011;9172;49.948;9.208;2022-08-20T03:27:02;7.20;;;4.27;;
18090;SDS011;9172;49.948;9.208;2022-08-20T03:29:31;6.73;;;4.97;;
18090;SDS011;9172;49.948;9.208;2022-08-20T03:32:02;6.47;;;4.40;;
18090;SDS011;9172;49.948;9.208;2022-08-20T03:34:31;7.13;;;4.47;;
18090;SDS011;9172;49.948;9.208;2022-08-20T03:37:00;7.57;;;4.57;;
18090;SDS011;9172;49.948;9.208;2022-08-20T03:39:29;6.47;;;4.80;;
18090;SDS011;9172;49.948;9.208;2022-08-20T03:41:57;8.67;;;4.77;;
18090;SDS011;9172;49.948;9.208;2022-08-20T03:44:26;7.33;;;4.97;;
18090;SDS011;9172;49.948;9.208;2022-08-20T03:46:55;8.63;;;4.53;;
18090;SDS011;9172;49.948;9.208;2022-08-20T03:49:24;5.73;;;4.70;;
18090;SDS011;9172;49.948;9.208;2022-08-20T03:51:53;7.47;;;4.60;;
18090;SDS011;9172;49.948;9.208;2022-08-20T03:54:23;10.13;;;4.50;;
18090;SDS011;9172;49.948;9.208;2022-08-20T03:56:52;12.00;;;4.77;;
18090;SDS011;9172;49.948;9.208;2022-08-20T03:59:21;6.33;;;4.33;;
18090;SDS011;9172;49.948;9.208;2022-08-20T04:01:50;7.70;;;4.20;;
18090;SDS011;9172;49.948;9.208;2022-08-20T04:04:19;8.50;;;4.97;;
18090;SDS011;9172;49.948;9.208;2022-08-20T04:06:49;6.23;;;4.30;;
18090;SDS011;9172;49.948;9.208;2022-08-20T04:09:17;10.00;;;5.00;;
18090;SDS011;9172;49.948;9.208;2022-08-20T04:11:46;5.90;;;4.33;;
18090;SDS011;9172;49.948;9.208;2022-08-20T04:14:15;5.90;;;4.37;;
18090;SDS011;9172;49.948;9.208;2022-08-20T04:16:43;6.00;;;4.30;;
18090;SDS011;9172;49.948;9.208;2022-08-20T04:19:13;8.17;;;4.63;;
18090;SDS011;9172;49.948;9.208;2022-08-20T04:21:42;7.30;;;4.47;;
18090;SDS011;9172;49.948;9.208;2022-08-20T04:24:13;6.60;;;4.33;;
18090;SDS011;9172;49.948;9.208;2022-08-20T04:26:41;5.27;;;4.23;;
18090;SDS011;9172;49.948;9.208;2022-08-20T04:29:11;12.20;;;3.93;;
18090;SDS011;9172;49.948;9.208;2022-08-20T04:31:39;6.90;;;4.47;;
18090;SDS011;9172;49.948;9.208;2022-08-20T04:34:08;7.50;;;3.97;;
18090;SDS011;9172;49.948;9.208;2022-08-20T04:36:38;7.77;;;4.03;;
18090;SDS011;9172;49.948;9.208;2022-08-20T04:39:06;8.30;;;4.50;;
18090;SDS011;9172;49.948;9.208;2022-08-20T04:41:35;5.40;;;3.83;;
18090;SDS011;9172;49.948;9.208;2022-08-20T04:44:05;5.50;;;3.80;;
18090;SDS011;9172;49.948;9.208;2022-08-20T04:46:33;7.33;;;4.20;;
18090;SDS011;9172;49.948;9.208;2022-08-20T04:49:04;5.00;;;4.00;;
18090;SDS011;9172;49.948;9.208;2022-08-20T04:51:33;7.53;;;3.90;;
18090;SDS011;9172;49.948;9.208;2022-08-20T04:54:02;5.30;;;3.40;;
18090;SDS011;9172;49.948;9.208;2022-08-20T04:56:32;8.00;;;3.97;;
18090;SDS011;9172;49.948;9.208;2022-08-20T04:59:04;4.97;;;3.83;;
18090;SDS011;9172;49.948;9.208;2022-08-20T05:01:33;5.63;;;4.30;;
18090;SDS011;9172;49.948;9.208;2022-08-20T05:04:03;6.13;;;4.20;;
18090;SDS011;9172;49.948;9.208;2022-08-20T05:06:32;5.97;;;3.83;;
18090;SDS011;9172;49.948;9.208;2022-08-20T05:09:02;6.10;;;4.03;;
18090;SDS011;9172;49.948;9.208;2022-08-20T05:11:31;5.97;;;4.50;;
18090;SDS011;9172;49.948;9.208;2022-08-20T05:16:37;5.53;;;3.83;;
18090;SDS011;9172;49.948;9.208;2022-08-20T05:19:06;6.67;;;4.10;;
18090;SDS011;9172;49.948;9.208;2022-08-20T05:21:37;6.30;;;4.10;;
18090;SDS011;9172;49.948;9.208;2022-08-20T05:24:07;6.20;;;4.67;;
18090;SDS011;9172;49.948;9.208;2022-08-20T05:26:38;6.27;;;3.80;;
18090;SDS011;9172;49.948;9.208;2022-08-20T05:29:08;5.97;;;3.77;;
18090;SDS011;9172;49.948;9.208;2022-08-20T05:31:37;5.07;;;3.70;;
18090;SDS011;9172;49.948;9.208;2022-08-20T05:34:08;5.47;;;3.73;;
18090;SDS011;9172;49.948;9.208;2022-08-20T05:36:38;5.93;;;4.17;;
18090;SDS011;9172;49.948;9.208;2022-08-20T05:39:09;4.87;;;3.67;;
18090;SDS011;9172;49.948;9.208;2022-08-20T05:41:38;5.57;;;3.70;;
18090;SDS011;9172;49.948;9.208;2022-08-20T05:44:08;4.73;;;3.77;;
18090;SDS011;9172;49.948;9.208;2022-08-20T05:46:40;7.87;;;4.27;;
18090;SDS011;9172;49.948;9.208;2022-08-20T05:49:12;6.83;;;4.33;;
18090;SDS011;9172;49.948;9.208;2022-08-20T05:51:42;6.10;;;3.83;;
18090;SDS011;9172;49.948;9.208;2022-08-20T05:54:11;5.53;;;3.70;;
18090;SDS011;9172;49.948;9.208;2022-08-20T05:56:40;5.20;;;3.83;;
18090;SDS011;9172;49.948;9.208;2022-08-20T05:59:10;4.73;;;3.37;;
18090;SDS011;9172;49.948;9.208;2022-08-20T06:01:39;5.27;;;3.70;;
18090;SDS011;9172;49.948;9.208;2022-08-20T06:04:09;6.47;;;3.97;;
18090;SDS011;9172;49.948;9.208;2022-08-20T06:06:50;4.67;;;3.80;;
18090;SDS011;9172;49.948;9.208;2022-08-20T06:09:21;4.90;;;3.80;;
18090;SDS011;9172;49.948;9.208;2022-08-20T06:11:51;5.10;;;3.70;;
18090;SDS011;9172;49.948;9.208;2022-08-20T06:14:20;7.67;;;4.17;;
18090;SDS011;9172;49.948;9.208;2022-08-20T06:16:48;5.10;;;3.37;;
18090;SDS011;9172;49.948;9.208;2022-08-20T06:19:19;6.47;;;4.40;;
18090;SDS011;9172;49.948;9.208;2022-08-20T06:21:50;5.33;;;4.10;;
18090;SDS011;9172;49.948;9.208;2022-08-20T06:24:18;4.83;;;3.70;;
18090;SDS011;9172;49.948;9.208;2022-08-20T06:26:48;7.20;;;4.70;;
18090;SDS011;9172;49.948;9.208;2022-08-20T06:29:22;10.40;;;4.50;;
18090;SDS011;9172;49.948;9.208;2022-08-20T06:31:51;10.17;;;5.07;;
18090;SDS011;9172;49.948;9.208;2022-08-20T06:34:19;7.30;;;4.23;;
18090;SDS011;9172;49.948;9.208;2022-08-20T06:36:51;6.97;;;4.43;;
18090;SDS011;9172;49.948;9.208;2022-08-20T06:39:20;11.87;;;5.20;;
18090;SDS011;9172;49.948;9.208;2022-08-20T06:41:49;6.50;;;4.33;;
18090;SDS011;9172;49.948;9.208;2022-08-20T06:44:18;10.73;;;4.73;;
18090;SDS011;9172;49.948;9.208;2022-08-20T06:46:48;9.10;;;4.43;;
18090;SDS011;9172;49.948;9.208;2022-08-20T06:49:16;6.57;;;4.27;;
18090;SDS011;9172;49.948;9.208;2022-08-20T06:51:46;4.20;;;3.63;;
18090;SDS011;9172;49.948;9.208;2022-08-20T06:54:15;5.80;;;3.33;;
18090;SDS011;9172;49.948;9.208;2022-08-20T06:56:44;8.40;;;4.50;;
18090;SDS011;9172;49.948;9.208;2022-08-20T06:59:12;8.60;;;4.13;;
18090;SDS011;9172;49.948;9.208;2022-08-20T07:01:42;8.17;;;4.27;;
18090;SDS011;9172;49.948;9.208;2022-08-20T07:04:12;11.17;;;4.80;;
18090;SDS011;9172;49.948;9.208;2022-08-20T07:06:41;8.70;;;4.30;;
18090;SDS011;9172;49.948;9.208;2022-08-20T07:09:11;7.20;;;4.20;;
18090;SDS011;9172;49.948;9.208;2022-08-20T07:11:40;6.27;;;3.70;;
18090;SDS011;9172;49.948;9.208;2022-08-20T07:14:10;9.80;;;4.20;;
18090;SDS011;9172;49.948;9.208;2022-08-20T07:16:38;7.60;;;4.53;;
18090;SDS011;9172;49.948;9.208;2022-08-20T07:19:08;11.00;;;5.03;;
18090;SDS011;9172;49.948;9.208;2022-08-20T07:21:37;11.20;;;5.90;;
18090;SDS011;9172;49.948;9.208;2022-08-20T07:24:06;7.13;;;4.43;;
18090;SDS011;9172;49.948;9.208;2022-08-20T07:26:37;9.07;;;4.73;;
18090;SDS011;9172;49.948;9.208;2022-08-20T07:29:07;6.67;;;4.47;;
18090;SDS011;9172;49.948;9.208;2022-08-20T07:31:37;6.63;;;4.97;;
18090;SDS011;9172;49.948;9.208;2022-08-20T07:34:24;6.87;;;4.83;;
18090;SDS011;9172;49.948;9.208;2022-08-20T07:36:53;7.27;;;4.77;;
18090;SDS011;9172;49.948;9.208;2022-08-20T07:39:24;7.37;;;4.63;;
18090;SDS011;9172;49.948;9.208;2022-08-20T07:41:53;6.20;;;4.33;;
18090;SDS011;9172;49.948;9.208;2022-08-20T07:44:28;6.97;;;4.13;;
18090;SDS011;9172;49.948;9.208;2022-08-20T07:46:57;6.67;;;4.73;;
18090;SDS011;9172;49.948;9.208;2022-08-20T07:49:26;6.00;;;4.60;;
18090;SDS011;9172;49.948;9.208;2022-08-20T07:51:56;6.63;;;4.47;;
18090;SDS011;9172;49.948;9.208;2022-08-20T07:54:24;6.57;;;4.50;;
18090;SDS011;9172;49.948;9.208;2022-08-20T07:56:53;8.63;;;4.50;;
18090;SDS011;9172;49.948;9.208;2022-08-20T07:59:22;7.60;;;4.30;;
18090;SDS011;9172;49.948;9.208;2022-08-20T08:01:51;7.97;;;4.50;;
18090;SDS011;9172;49.948;9.208;2022-08-20T08:04:20;7.30;;;4.20;;
18090;SDS011;9172;49.948;9.208;2022-08-20T08:06:49;9.60;;;3.97;;
18090;SDS011;9172;49.948;9.208;2022-08-20T08:09:18;7.03;;;5.17;;
18090;SDS011;9172;49.948;9.208;2022-08-20T08:11:48;6.77;;;4.83;;
18090;SDS011;9172;49.948;9.208;2022-08-20T08:14:18;11.00;;;5.07;;
18090;SDS011;9172;49.948;9.208;2022-08-20T08:16:51;10.17;;;4.67;;
18090;SDS011;9172;49.948;9.208;2022-08-20T08:19:22;8.23;;;4.87;;
18090;SDS011;9172;49.948;9.208;2022-08-20T08:21:54;5.60;;;4.13;;
18090;SDS011;9172;49.948;9.208;2022-08-20T08:24:25;8.80;;;5.43;;
18090;SDS011;9172;49.948;9.208;2022-08-20T08:26:53;7.30;;;4.73;;
18090;SDS011;9172;49.948;9.208;2022-08-20T08:29:22;6.87;;;4.47;;
18090;SDS011;9172;49.948;9.208;2022-08-20T08:31:51;7.93;;;4.27;;
18090;SDS011;9172;49.948;9.208;2022-08-20T08:34:20;9.03;;;5.40;;
18090;SDS011;9172;49.948;9.208;2022-08-20T08:36:50;9.10;;;4.53;;
18090;SDS011;9172;49.948;9.208;2022-08-20T08:39:19;7.53;;;4.60;;
18090;SDS011;9172;49.948;9.208;2022-08-20T08:41:49;9.33;;;5.60;;
18090;SDS011;9172;49.948;9.208;2022-08-20T08:44:21;9.10;;;5.37;;
18090;SDS011;9172;49.948;9.208;2022-08-20T08:46:53;6.37;;;4.70;;
18090;SDS011;9172;49.948;9.208;2022-08-20T08:49:25;7.70;;;5.43;;
18090;SDS011;9172;49.948;9.208;2022-08-20T08:51:57;6.60;;;4.70;;
18090;SDS011;9172;49.948;9.208;2022-08-20T08:54:29;8.03;;;5.73;;
18090;SDS011;9172;49.948;9.208;2022-08-20T08:57:00;8.20;;;5.23;;
18090;SDS011;9172;49.948;9.208;2022-08-20T08:59:31;9.20;;;6.10;;
18090;SDS011;9172;49.948;9.208;2022-08-20T09:02:01;7.33;;;5.03;;
18090;SDS011;9172;49.948;9.208;2022-08-20T09:04:31;6.57;;;4.83;;
18090;SDS011;9172;49.948;9.208;2022-08-20T09:07:03;9.03;;;5.90;;
18090;SDS011;9172;49.948;9.208;2022-08-20T09:09:37;12.53;;;5.30;;
18090;SDS011;9172;49.948;9.208;2022-08-20T09:12:09;8.23;;;5.70;;
18090;SDS011;9172;49.948;9.208;2022-08-20T09:14:39;10.43;;;6.40;;
18090;SDS011;9172;49.948;9.208;2022-08-20T09:17:11;8.43;;;5.20;;
18090;SDS011;9172;49.948;9.208;2022-08-20T09:19:40;6.77;;;5.03;;
18090;SDS011;9172;49.948;9.208;2022-08-20T09:22:08;6.67;;;4.77;;
18090;SDS011;9172;49.948;9.208;2022-08-20T09:24:38;6.97;;;4.77;;
18090;SDS011;9172;49.948;9.208;2022-08-20T09:27:09;7.30;;;4.50;;
18090;SDS011;9172;49.948;9.208;2022-08-20T09:29:38;5.70;;;4.30;;
18090;SDS011;9172;49.948;9.208;2022-08-20T09:32:09;6.73;;;4.37;;
18090;SDS011;9172;49.948;9.208;2022-08-20T09:34:40;6.53;;;4.80;;
18090;SDS011;9172;49.948;9.208;2022-08-20T09:37:10;4.57;;;3.70;;
18090;SDS011;9172;49.948;9.208;2022-08-20T09:39:39;5.33;;;4.00;;
18090;SDS011;9172;49.948;9.208;2022-08-20T09:42:09;6.10;;;4.50;;
18090;SDS011;9172;49.948;9.208;2022-08-20T09:44:41;6.30;;;3.87;;
18090;SDS011;9172;49.948;9.208;2022-08-20T09:47:10;5.47;;;4.23;;
18090;SDS011;9172;49.948;9.208;2022-08-20T09:49:38;7.83;;;4.53;;
18090;SDS011;9172;49.948;9.208;2022-08-20T09:52:08;7.10;;;5.33;;
18090;SDS011;9172;49.948;9.208;2022-08-20T09:54:38;8.10;;;4.87;;
18090;SDS011;9172;49.948;9.208;2022-08-20T09:57:07;7.80;;;4.97;;
18090;SDS011;9172;49.948;9.208;2022-08-20T10:02:14;5.70;;;4.70;;
18090;SDS011;9172;49.948;9.208;2022-08-20T10:04:43;7.87;;;6.17;;
18090;SDS011;9172;49.948;9.208;2022-08-20T10:07:12;10.27;;;5.93;;
18090;SDS011;9172;49.948;9.208;2022-08-20T10:09:41;10.33;;;6.07;;
18090;SDS011;9172;49.948;9.208;2022-08-20T10:12:09;7.23;;;5.90;;
18090;SDS011;9172;49.948;9.208;2022-08-20T10:14:38;10.30;;;6.10;;
18090;SDS011;9172;49.948;9.208;2022-08-20T10:17:08;8.93;;;6.60;;
18090;SDS011;9172;49.948;9.208;2022-08-20T10:19:37;7.73;;;5.97;;
18090;SDS011;9172;49.948;9.208;2022-08-20T10:22:07;9.40;;;7.00;;
18090;SDS011;9172;49.948;9.208;2022-08-20T10:24:37;9.43;;;6.93;;
18090;SDS011;9172;49.948;9.208;2022-08-20T10:27:06;6.93;;;5.70;;
18090;SDS011;9172;49.948;9.208;2022-08-20T10:29:34;7.90;;;6.07;;
18090;SDS011;9172;49.948;9.208;2022-08-20T10:32:08;8.67;;;5.80;;
18090;SDS011;9172;49.948;9.208;2022-08-20T10:34:39;6.57;;;5.43;;
18090;SDS011;9172;49.948;9.208;2022-08-20T10:37:09;7.80;;;6.13;;
18090;SDS011;9172;49.948;9.208;2022-08-20T10:39:41;9.23;;;6.47;;
18090;SDS011;9172;49.948;9.208;2022-08-20T10:42:11;8.23;;;6.30;;
18090;SDS011;9172;49.948;9.208;2022-08-20T10:44:41;10.70;;;6.43;;
18090;SDS011;9172;49.948;9.208;2022-08-20T10:47:14;8.10;;;5.70;;
18090;SDS011;9172;49.948;9.208;2022-08-20T10:49:45;9.67;;;5.90;;
18090;SDS011;9172;49.948;9.208;2022-08-20T10:52:14;7.93;;;5.20;;
18090;SDS011;9172;49.948;9.208;2022-08-20T10:54:43;8.05;;;4.60;;
18090;SDS011;9172;49.948;9.208;2022-08-20T10:57:13;5.50;;;4.60;;
18090;SDS011;9172;49.948;9.208;2022-08-20T10:59:43;6.27;;;4.80;;
18090;SDS011;9172;49.948;9.208;2022-08-20T11:02:13;5.15;;;4.17;;
18090;SDS011;9172;49.948;9.208;2022-08-20T11:04:42;6.42;;;4.78;;
18090;SDS011;9172;49.948;9.208;2022-08-20T11:07:15;7.23;;;5.07;;
18090;SDS011;9172;49.948;9.208;2022-08-20T11:09:45;9.40;;;6.33;;
18090;SDS011;9172;49.948;9.208;2022-08-20T11:12:16;9.67;;;6.60;;
18090;SDS011;9172;49.948;9.208;2022-08-20T11:14:46;10.30;;;7.30;;
18090;SDS011;9172;49.948;9.208;2022-08-20T11:17:18;10.90;;;7.37;;
18090;SDS011;9172;49.948;9.208;2022-08-20T11:19:47;11.87;;;7.37;;
18090;SDS011;9172;49.948;9.208;2022-08-20T11:22:18;10.40;;;6.97;;
18090;SDS011;9172;49.948;9.208;2022-08-20T11:24:47;9.90;;;6.13;;
18090;SDS011;9172;49.948;9.208;2022-08-20T11:27:18;11.87;;;8.07;;
18090;SDS011;9172;49.948;9.208;2022-08-20T11:29:49;14.53;;;6.93;;
18090;SDS011;9172;49.948;9.208;2022-08-20T11:32:19;8.43;;;6.27;;
18090;SDS011;9172;49.948;9.208;2022-08-20T11:34:48;9.93;;;7.73;;
18090;SDS011;9172;49.948;9.208;2022-08-20T11:37:18;9.00;;;6.70;;
18090;SDS011;9172;49.948;9.208;2022-08-20T11:39:49;8.47;;;6.23;;
18090;SDS011;9172;49.948;9.208;2022-08-20T11:42:18;8.43;;;6.33;;
18090;SDS011;9172;49.948;9.208;2022-08-20T11:44:47;7.80;;;6.30;;
18090;SDS011;9172;49.948;9.208;2022-08-20T11:47:20;8.60;;;5.47;;
18090;SDS011;9172;49.948;9.208;2022-08-20T11:49:55;9.03;;;5.17;;
18090;SDS011;9172;49.948;9.208;2022-08-20T11:52:26;5.72;;;3.17;;
18090;SDS011;9172;49.948;9.208;2022-08-20T11:54:55;2.87;;;2.53;;
18090;SDS011;9172;49.948;9.208;2022-08-20T11:57:26;3.67;;;3.03;;
18090;SDS011;9172;49.948;9.208;2022-08-20T11:59:58;3.02;;;2.50;;
18090;SDS011;9172;49.948;9.208;2022-08-20T12:02:28;3.33;;;1.97;;
18090;SDS011;9172;49.948;9.208;2022-08-20T12:04:59;3.93;;;2.27;;
18090;SDS011;9172;49.948;9.208;2022-08-20T12:07:27;1.97;;;1.77;;
18090;SDS011;9172;49.948;9.208;2022-08-20T12:09:57;3.00;;;1.70;;
18090;SDS011;9172;49.948;9.208;2022-08-20T12:12:26;2.00;;;1.73;;
18090;SDS011;9172;49.948;9.208;2022-08-20T12:14:55;2.40;;;1.90;;
18090;SDS011;9172;49.948;9.208;2022-08-20T12:17:24;2.98;;;1.80;;
18090;SDS011;9172;49.948;9.208;2022-08-20T12:19:55;3.22;;;1.80;;
18090;SDS011;9172;49.948;9.208;2022-08-20T12:22:25;5.85;;;2.20;;
18090;SDS011;9172;49.948;9.208;2022-08-20T12:24:56;2.25;;;1.77;;
18090;SDS011;9172;49.948;9.208;2022-08-20T12:27:26;8.30;;;2.20;;
18090;SDS011;9172;49.948;9.208;2022-08-20T12:29:56;3.02;;;1.90;;
18090;SDS011;9172;49.948;9.208;2022-08-20T12:32:28;3.22;;;1.98;;
18090;SDS011;9172;49.948;9.208;2022-08-20T12:34:59;2.20;;;2.00;;
18090;SDS011;9172;49.948;9.208;2022-08-20T12:37:29;2.10;;;1.90;;
18090;SDS011;9172;49.948;9.208;2022-08-20T12:39:59;2.12;;;1.80;;
18090;SDS011;9172;49.948;9.208;2022-08-20T12:42:30;2.67;;;1.90;;
18090;SDS011;9172;49.948;9.208;2022-08-20T12:44:58;3.77;;;2.12;;
18090;SDS011;9172;49.948;9.208;2022-08-20T12:47:29;2.73;;;1.67;;
18090;SDS011;9172;49.948;9.208;2022-08-20T12:50:00;2.67;;;1.97;;
18090;SDS011;9172;49.948;9.208;2022-08-20T12:52:31;3.42;;;2.15;;
18090;SDS011;9172;49.948;9.208;2022-08-20T12:55:00;3.77;;;2.35;;
18090;SDS011;9172;49.948;9.208;2022-08-20T12:57:31;2.43;;;1.83;;
18090;SDS011;9172;49.948;9.208;2022-08-20T13:00:04;2.22;;;1.50;;
18090;SDS011;9172;49.948;9.208;2022-08-20T13:02:34;1.60;;;1.50;;
18090;SDS011;9172;49.948;9.208;2022-08-20T13:05:04;2.05;;;1.50;;
18090;SDS011;9172;49.948;9.208;2022-08-20T13:07:36;2.17;;;1.90;;
18090;SDS011;9172;49.948;9.208;2022-08-20T13:10:06;4.83;;;1.47;;
18090;SDS011;9172;49.948;9.208;2022-08-20T13:12:37;2.05;;;1.85;;
18090;SDS011;9172;49.948;9.208;2022-08-20T13:15:07;2.72;;;1.80;;
18090;SDS011;9172;49.948;9.208;2022-08-20T13:17:38;1.72;;;1.50;;
18090;SDS011;9172;49.948;9.208;2022-08-20T13:20:08;1.62;;;1.45;;
18090;SDS011;9172;49.948;9.208;2022-08-20T13:22:40;1.92;;;1.62;;
18090;SDS011;9172;49.948;9.208;2022-08-20T13:25:09;2.02;;;1.30;;
18090;SDS011;9172;49.948;9.208;2022-08-20T13:27:40;3.77;;;1.40;;
18090;SDS011;9172;49.948;9.208;2022-08-20T13:30:10;1.95;;;1.42;;
18090;SDS011;9172;49.948;9.208;2022-08-20T13:32:42;2.52;;;0.80;;
18090;SDS011;9172;49.948;9.208;2022-08-20T13:35:11;1.05;;;0.88;;
18090;SDS011;9172;49.948;9.208;2022-08-20T13:37:40;1.70;;;1.10;;
18090;SDS011;9172;49.948;9.208;2022-08-20T13:40:10;1.02;;;0.90;;
18090;SDS011;9172;49.948;9.208;2022-08-20T13:42:40;1.32;;;0.88;;
18090;SDS011;9172;49.948;9.208;2022-08-20T13:45:09;1.20;;;1.02;;
18090;SDS011;9172;49.948;9.208;2022-08-20T13:47:39;0.88;;;0.82;;
18090;SDS011;9172;49.948;9.208;2022-08-20T13:50:11;1.27;;;1.17;;
18090;SDS011;9172;49.948;9.208;2022-08-20T13:52:41;0.85;;;0.82;;
18090;SDS011;9172;49.948;9.208;2022-08-20T13:55:14;2.37;;;1.07;;
18090;SDS011;9172;49.948;9.208;2022-08-20T13:57:42;1.47;;;1.10;;
18090;SDS011;9172;49.948;9.208;2022-08-20T14:00:13;1.10;;;0.93;;
18090;SDS011;9172;49.948;9.208;2022-08-20T14:02:44;1.65;;;1.10;;
18090;SDS011;9172;49.948;9.208;2022-08-20T14:05:13;1.22;;;1.00;;
18090;SDS011;9172;49.948;9.208;2022-08-20T14:07:42;2.70;;;1.07;;
18090;SDS011;9172;49.948;9.208;2022-08-20T14:10:13;1.20;;;1.00;;
18090;SDS011;9172;49.948;9.208;2022-08-20T14:12:45;1.00;;;0.90;;
18090;SDS011;9172;49.948;9.208;2022-08-20T14:15:15;1.45;;;0.93;;
18090;SDS011;9172;49.948;9.208;2022-08-20T14:17:49;2.42;;;1.10;;
18090;SDS011;9172;49.948;9.208;2022-08-20T14:20:19;1.20;;;1.02;;
18090;SDS011;9172;49.948;9.208;2022-08-20T14:22:50;1.27;;;1.10;;
18090;SDS011;9172;49.948;9.208;2022-08-20T14:25:19;1.10;;;1.00;;
18090;SDS011;9172;49.948;9.208;2022-08-20T14:27:49;2.37;;;1.10;;
18090;SDS011;9172;49.948;9.208;2022-08-20T14:30:20;2.58;;;0.93;;
18090;SDS011;9172;49.948;9.208;2022-08-20T14:32:51;1.72;;;1.10;;
18090;SDS011;9172;49.948;9.208;2022-08-20T14:35:20;1.22;;;0.90;;
18090;SDS011;9172;49.948;9.208;2022-08-20T14:37:50;1.20;;;1.00;;
18090;SDS011;9172;49.948;9.208;2022-08-20T14:40:22;0.95;;;0.88;;
18090;SDS011;9172;49.948;9.208;2022-08-20T14:42:54;1.20;;;1.10;;
18090;SDS011;9172;49.948;9.208;2022-08-20T14:45:23;2.62;;;0.90;;
18090;SDS011;9172;49.948;9.208;2022-08-20T14:47:54;2.92;;;1.00;;
18090;SDS011;9172;49.948;9.208;2022-08-20T14:50:27;2.12;;;1.02;;
18090;SDS011;9172;49.948;9.208;2022-08-20T14:52:58;1.00;;;0.90;;
18090;SDS011;9172;49.948;9.208;2022-08-20T14:55:30;2.75;;;0.90;;
18090;SDS011;9172;49.948;9.208;2022-08-20T14:57:58;1.25;;;1.05;;
18090;SDS011;9172;49.948;9.208;2022-08-20T15:00:28;1.12;;;0.90;;
18090;SDS011;9172;49.948;9.208;2022-08-20T15:03:00;1.00;;;0.80;;
18090;SDS011;9172;49.948;9.208;2022-08-20T15:05:29;0.95;;;0.85;;
18090;SDS011;9172;49.948;9.208;2022-08-20T15:07:58;2.85;;;0.80;;
18090;SDS011;9172;49.948;9.208;2022-08-20T15:10:28;3.00;;;0.90;;
18090;SDS011;9172;49.948;9.208;2022-08-20T15:12:59;2.08;;;0.75;;
18090;SDS011;9172;49.948;9.208;2022-08-20T15:15:28;0.98;;;0.70;;
18090;SDS011;9172;49.948;9.208;2022-08-20T15:17:58;0.72;;;0.62;;
18090;SDS011;9172;49.948;9.208;2022-08-20T15:20:29;0.68;;;0.60;;
18090;SDS011;9172;49.948;9.208;2022-08-20T15:23:00;1.90;;;0.68;;
18090;SDS011;9172;49.948;9.208;2022-08-20T15:25:30;1.00;;;0.90;;